Time;durP1;ratioP1;P1;durP2;ratioP2;P2;SDS_P1;SDS_P2;PMS_P1;PMS_P2;Temp;Humidity;BMP_temperature;BMP_pressure;BME280_temperature;BME280_humidity;BME280_pressure;Samples;Min_cycle;Max_cycle;Signal;HPM_P1;HPM_P2
2022/01/18 00:00:27;;;;;;;10.75;3.70;;;;;;;18.45;43.96;102758.31;4992063;28;20068;-91
2022/01/18 00:02:53;;;;;;;8.15;3.13;;;;;;;18.41;43.91;102749.66;4991844;28;20576;-91
2022/01/18 00:05:18;;;;;;;6.50;2.65;;;;;;;18.32;44.06;102752.91;4992115;28;20026;-91
2022/01/18 00:07:45;;;;;;;6.82;3.00;;;;;;;18.57;43.62;102760.19;4993476;28;20058;-91
2022/01/18 00:10:12;;;;;;;10.35;3.40;;;;;;;18.47;43.94;102760.88;4995754;28;20030;-90
2022/01/18 00:18:05;;;;;;;13.07;4.05;;;;;;;18.14;44.58;102762.06;4995827;28;20388;-91
2022/01/18 00:23:18;;;;;;;10.45;3.63;;;;;;;18.07;44.17;102764.25;4995325;28;20041;-90
2022/01/18 00:25:47;;;;;;;9.07;3.30;;;;;;;18.02;44.35;102761.84;4994235;28;20030;-91
2022/01/18 00:28:13;;;;;;;13.15;3.22;;;;;;;18.00;44.16;102765.56;4995623;28;20085;-90
2022/01/18 00:35:47;;;;;;;7.35;3.30;;;;;;;17.90;43.87;102751.16;4975754;28;20034;-91
2022/01/18 00:38:31;;;;;;;9.43;3.65;;;;;;;17.98;43.76;102755.03;4975893;28;20035;-90
2022/01/18 00:40:57;;;;;;;9.63;3.15;;;;;;;18.09;43.54;102753.50;4975653;28;20388;-90
2022/01/18 00:43:22;;;;;;;7.95;3.00;;;;;;;18.21;43.26;102750.09;4975766;28;20023;-91
2022/01/18 00:45:48;;;;;;;6.32;2.92;;;;;;;18.17;43.32;102751.25;4975720;28;20053;-90
2022/01/18 00:48:13;;;;;;;10.68;3.28;;;;;;;18.16;43.78;102739.72;4975570;28;20031;-90
2022/01/18 00:50:39;;;;;;;9.60;3.28;;;;;;;18.19;43.26;102752.84;4975533;28;20027;-91
2022/01/18 00:53:12;;;;;;;8.48;2.80;;;;;;;18.16;43.57;102747.69;4975555;28;20031;-91
2022/01/18 00:55:48;;;;;;;6.53;2.78;;;;;;;18.15;43.60;102746.00;4975470;28;20019;-90
2022/01/18 00:58:14;;;;;;;7.13;2.53;;;;;;;18.27;43.73;102746.19;4974384;28;20450;-90
2022/01/18 01:00:40;;;;;;;10.50;3.05;;;;;;;18.27;43.81;102741.72;4981712;28;20069;-90
2022/01/18 01:03:05;;;;;;;8.65;2.90;;;;;;;18.14;43.51;102746.94;4994843;28;20034;-90
2022/01/18 01:05:30;;;;;;;5.05;2.35;;;;;;;18.12;44.09;102750.66;4994792;28;20022;-90
2022/01/18 01:07:56;;;;;;;11.10;2.95;;;;;;;17.97;44.02;102744.47;4994608;28;20026;-91
2022/01/18 01:10:22;;;;;;;7.18;2.85;;;;;;;17.93;43.76;102738.53;4994827;28;20129;-91
2022/01/18 01:12:47;;;;;;;8.90;2.97;;;;;;;17.82;44.62;102740.97;4994619;28;20018;-91
2022/01/18 01:15:15;;;;;;;8.88;2.78;;;;;;;17.92;43.91;102730.66;4994464;28;20061;-91
2022/01/18 01:37:12;;;;;;;6.57;2.50;;;;;;;18.23;43.35;102725.09;4973333;28;20042;-90
2022/01/18 01:44:46;;;;;;;7.80;2.60;;;;;;;18.16;43.64;102717.63;4974659;28;20110;-90
2022/01/18 01:47:17;;;;;;;7.68;2.55;;;;;;;18.10;43.44;102708.22;4974531;28;20034;-91
2022/01/18 01:49:44;;;;;;;6.15;2.53;;;;;;;18.10;43.35;102707.38;4974470;28;20030;-91
2022/01/18 01:52:11;;;;;;;5.80;2.25;;;;;;;18.04;43.67;102716.59;4974339;28;20049;-92
2022/01/18 01:54:38;;;;;;;8.20;3.08;;;;;;;18.11;43.48;102709.06;4974270;28;20049;-90
2022/01/18 01:57:04;;;;;;;6.75;2.40;;;;;;;18.03;43.80;102706.91;4974482;28;20030;-90
2022/01/18 01:59:30;;;;;;;9.10;2.40;;;;;;;17.90;43.61;102709.47;4974467;28;20101;-90
2022/01/18 02:01:56;;;;;;;9.40;2.75;;;;;;;17.88;43.61;102707.88;5023125;28;20121;-90
2022/01/18 02:04:21;;;;;;;8.70;2.45;;;;;;;18.15;43.09;102715.91;5008782;28;20041;-90
2022/01/18 02:06:47;;;;;;;4.38;1.95;;;;;;;18.28;43.08;102715.97;4992205;28;20027;-90
2022/01/18 02:09:12;;;;;;;8.68;2.67;;;;;;;18.23;42.96;102709.16;4993578;28;20179;-91
2022/01/18 02:11:38;;;;;;;6.70;2.20;;;;;;;18.12;43.48;102710.78;4993455;28;20485;-91
2022/01/18 02:14:06;;;;;;;7.22;2.53;;;;;;;18.16;42.74;102715.78;4987246;28;20409;-92
2022/01/18 02:22:05;;;;;;;6.65;2.53;;;;;;;18.39;42.66;102709.00;4973602;28;20057;-91
2022/01/18 02:24:30;;;;;;;10.50;3.00;;;;;;;18.36;42.80;102701.22;4973965;28;20093;-91
2022/01/18 02:26:55;;;;;;;7.97;2.85;;;;;;;18.31;42.94;102706.00;4973910;28;20030;-91
2022/01/18 02:29:21;;;;;;;6.82;2.70;;;;;;;18.40;43.02;102709.88;4973715;28;20077;-90
2022/01/18 02:31:47;;;;;;;16.38;4.05;;;;;;;18.49;42.61;102706.63;4992591;28;20014;-91
2022/01/18 02:34:18;;;;;;;9.35;3.08;;;;;;;18.55;42.60;102692.91;4993140;28;20022;-91
2022/01/18 02:36:44;;;;;;;6.75;2.55;;;;;;;18.53;42.86;102701.94;4993166;28;20034;-91
2022/01/18 02:39:10;;;;;;;6.53;2.30;;;;;;;18.49;42.56;102693.31;4993492;28;20022;-91
2022/01/18 02:41:37;;;;;;;7.28;3.60;;;;;;;18.46;42.74;102682.84;4992910;28;20491;-90
2022/01/18 02:44:09;;;;;;;8.40;3.85;;;;;;;18.45;42.88;102686.50;4988015;28;20031;-89
2022/01/18 02:46:35;;;;;;;7.40;2.95;;;;;;;18.46;42.98;102674.88;4973396;28;20038;-90
2022/01/18 02:49:03;;;;;;;6.32;2.85;;;;;;;18.38;42.63;102669.22;4973628;28;20043;-90
2022/01/18 02:51:28;;;;;;;7.80;3.10;;;;;;;18.22;43.04;102664.03;4973547;28;20023;-90
2022/01/18 02:54:06;;;;;;;8.43;3.33;;;;;;;18.42;42.52;102655.63;4973386;28;20469;-90
2022/01/18 02:56:36;;;;;;;8.32;3.00;;;;;;;18.50;42.93;102652.44;4973477;28;20050;-91
2022/01/18 02:59:13;;;;;;;7.32;3.10;;;;;;;18.34;42.69;102654.41;4973547;28;20073;-91
2022/01/18 03:04:23;;;;;;;7.55;2.55;;;;;;;18.29;42.95;102659.19;4973711;28;20053;-91
2022/01/18 03:06:49;;;;;;;11.02;3.15;;;;;;;18.40;42.50;102652.22;4973361;28;20034;-91
2022/01/18 03:09:14;;;;;;;9.68;2.83;;;;;;;18.49;42.38;102655.22;4973101;28;20404;-91
2022/01/18 03:11:40;;;;;;;6.05;3.08;;;;;;;18.43;42.58;102645.84;4973151;28;20027;-91
2022/01/18 03:14:05;;;;;;;9.20;2.67;;;;;;;18.56;42.38;102646.75;4978213;28;20060;-91
2022/01/18 03:16:31;;;;;;;7.13;2.33;;;;;;;18.60;42.91;102653.56;4992539;28;20361;-91
2022/01/18 03:18:56;;;;;;;7.03;2.92;;;;;;;18.62;42.05;102646.34;4992508;28;20030;-91
2022/01/18 03:21:22;;;;;;;6.75;3.35;;;;;;;18.67;42.21;102643.34;4992297;28;20038;-91
2022/01/18 03:23:52;;;;;;;5.50;2.38;;;;;;;18.72;42.11;102641.25;4991074;28;20480;-90
2022/01/18 03:26:19;;;;;;;4.72;2.92;;;;;;;18.41;42.28;102642.44;4992473;28;20022;-90
2022/01/18 03:28:44;;;;;;;7.03;2.53;;;;;;;18.56;42.59;102622.81;4990770;28;20057;-90
2022/01/18 03:31:10;;;;;;;9.10;3.17;;;;;;;18.57;42.42;102631.63;4992491;28;20030;-90
2022/01/18 03:33:36;;;;;;;7.95;2.40;;;;;;;18.51;42.33;102627.56;4992298;28;20116;-90
2022/01/18 03:36:02;;;;;;;8.75;3.38;;;;;;;18.57;42.70;102626.31;4992504;28;20026;-90
2022/01/18 03:38:30;;;;;;;7.15;2.75;;;;;;;18.39;42.92;102620.41;4992785;28;20054;-90
2022/01/18 03:41:03;;;;;;;6.28;2.25;;;;;;;18.39;42.82;102623.06;4992216;28;20432;-90
2022/01/18 03:43:29;;;;;;;9.45;2.35;;;;;;;18.31;43.00;102625.38;4994565;28;20442;-91
2022/01/18 03:46:00;;;;;;;7.43;2.72;;;;;;;18.28;43.24;102621.09;4976620;28;20109;-91
2022/01/18 03:50:55;;;;;;;6.15;2.63;;;;;;;18.18;43.03;102620.84;4976646;28;20030;-92
2022/01/18 03:53:22;;;;;;;6.55;2.42;;;;;;;18.04;43.07;102607.59;4976680;28;20393;-91
2022/01/18 03:55:48;;;;;;;9.05;2.22;;;;;;;18.10;43.05;102606.34;4976630;28;20027;-92
2022/01/18 03:58:13;;;;;;;8.95;2.63;;;;;;;18.11;42.78;102600.94;4976594;28;20035;-91
2022/01/18 04:00:39;;;;;;;7.43;2.78;;;;;;;18.09;42.90;102605.50;4976471;28;20101;-90
2022/01/18 04:03:04;;;;;;;6.30;2.50;;;;;;;18.23;42.99;102608.09;4976559;28;20027;-90
2022/01/18 04:05:30;;;;;;;5.70;2.10;;;;;;;18.28;42.82;102604.28;4976505;28;20049;-89
2022/01/18 04:07:55;;;;;;;5.10;2.42;;;;;;;18.23;42.41;102607.25;4975153;28;20474;-89
2022/01/18 04:10:21;;;;;;;5.90;2.47;;;;;;;18.41;42.86;102610.50;4976310;28;20034;-90
2022/01/18 04:12:47;;;;;;;10.10;2.50;;;;;;;18.51;42.41;102613.41;4976243;28;20485;-89
2022/01/18 04:15:14;;;;;;;9.73;2.60;;;;;;;18.32;42.78;102603.13;4992014;28;20026;-90
2022/01/18 04:28:30;;;;;;;6.65;2.25;;;;;;;18.46;42.52;102603.06;4995667;28;20033;-91
2022/01/18 04:30:55;;;;;;;8.48;2.30;;;;;;;18.42;42.25;102599.78;4995430;28;20468;-91
2022/01/18 04:33:21;;;;;;;5.80;2.70;;;;;;;18.39;42.59;102599.13;5010535;28;20121;-90
2022/01/18 04:35:46;;;;;;;5.47;2.50;;;;;;;18.24;42.36;102601.81;4995241;28;20439;-90
2022/01/18 04:38:12;;;;;;;6.47;2.88;;;;;;;18.16;42.35;102598.81;4995367;28;20022;-90
2022/01/18 04:40:41;;;;;;;6.95;2.80;;;;;;;18.02;42.53;102604.19;4995325;28;20061;-91
2022/01/18 04:43:15;;;;;;;6.53;2.17;;;;;;;18.12;42.89;102593.81;4995276;28;20104;-90
2022/01/18 04:48:28;;;;;;;10.70;2.60;;;;;;;17.70;42.98;102600.91;4993928;28;20053;-92
2022/01/18 04:50:55;;;;;;;7.65;2.63;;;;;;;17.83;43.49;102589.44;4993956;28;20041;-92
2022/01/18 04:53:22;;;;;;;7.22;2.85;;;;;;;17.66;43.15;102597.59;4994571;28;20166;-92
2022/01/18 04:55:54;;;;;;;4.30;2.38;;;;;;;17.58;43.56;102589.25;4995112;28;20018;-92
2022/01/18 04:58:20;;;;;;;5.93;2.67;;;;;;;17.61;43.28;102589.91;4977565;28;20033;-93
2022/01/18 05:00:46;;;;;;;8.45;2.90;;;;;;;17.70;43.24;102596.44;4974171;28;20166;-91
2022/01/18 05:03:11;;;;;;;6.65;2.80;;;;;;;17.67;43.02;102599.28;4975395;28;20051;-92
2022/01/18 05:05:37;;;;;;;6.35;2.58;;;;;;;17.81;43.14;102601.06;4975485;28;20122;-91
2022/01/18 05:08:05;;;;;;;8.48;2.60;;;;;;;18.21;42.82;102599.38;5006554;28;20031;-91
2022/01/18 05:10:31;;;;;;;8.35;2.95;;;;;;;18.10;42.05;102593.91;4975272;28;20035;-92
2022/01/18 05:12:59;;;;;;;5.32;2.17;;;;;;;17.90;42.60;102594.34;4975239;28;20151;-91
2022/01/18 05:23:16;;;;;;;8.15;2.63;;;;;;;18.06;42.61;102607.50;4994288;28;20033;-91
2022/01/18 05:25:42;;;;;;;6.55;2.80;;;;;;;17.82;42.60;102605.44;4994527;28;20026;-92
2022/01/18 05:28:08;;;;;;;7.88;3.40;;;;;;;17.89;42.88;102613.88;4994686;28;20030;-92
2022/01/18 05:30:33;;;;;;;9.65;2.83;;;;;;;17.70;42.56;102620.34;4994590;28;20384;-92
2022/01/18 05:32:59;;;;;;;8.10;3.28;;;;;;;17.86;43.48;102624.72;4994348;28;20049;-91
2022/01/18 05:35:25;;;;;;;9.77;2.88;;;;;;;17.78;43.08;102628.69;4994198;28;20077;-92
2022/01/18 05:37:51;;;;;;;7.57;3.38;;;;;;;17.71;42.66;102622.03;4994259;28;20018;-92
2022/01/18 05:40:18;;;;;;;6.28;3.20;;;;;;;17.69;42.52;102625.75;4994348;28;20388;-92
2022/01/18 05:42:44;;;;;;;9.07;3.08;;;;;;;17.59;42.80;102620.16;4994131;28;20042;-93
2022/01/18 05:45:10;;;;;;;7.57;3.13;;;;;;;17.71;42.82;102618.53;4978916;28;20031;-92
2022/01/18 05:47:37;;;;;;;7.85;3.25;;;;;;;18.00;42.36;102622.03;4974586;28;20053;-91
2022/01/18 05:50:04;;;;;;;9.35;3.00;;;;;;;17.64;42.60;102626.06;4974572;28;20033;-91
2022/01/18 05:52:29;;;;;;;7.55;3.45;;;;;;;17.70;42.52;102612.38;4974361;28;20039;-91
2022/01/18 05:54:54;;;;;;;6.28;3.30;;;;;;;17.73;42.48;102614.84;5005841;28;20038;-92
2022/01/18 05:57:20;;;;;;;11.80;3.35;;;;;;;17.73;42.54;102609.53;4974513;28;20025;-91
2022/01/18 05:59:47;;;;;;;6.22;3.13;;;;;;;17.48;43.03;102612.03;4974416;28;20045;-93
2022/01/18 06:02:18;;;;;;;8.50;4.07;;;;;;;17.49;42.54;102605.75;4974298;28;20507;-93
2022/01/18 06:07:41;;;;;;;10.60;3.50;;;;;;;17.62;43.33;102604.88;4983673;28;20043;-91
2022/01/18 06:10:07;;;;;;;8.88;3.78;;;;;;;17.72;42.29;102618.44;4974120;28;20057;-91
2022/01/18 06:12:32;;;;;;;8.10;3.30;;;;;;;17.69;42.70;102612.47;4974004;28;20386;-92
2022/01/18 06:14:58;;;;;;;5.53;2.95;;;;;;;17.67;42.33;102609.91;4986706;28;20023;-92
2022/01/18 06:17:24;;;;;;;7.28;3.78;;;;;;;17.49;42.55;102611.91;4993429;28;20038;-92
2022/01/18 06:19:50;;;;;;;10.65;3.55;;;;;;;17.52;42.80;102605.56;4993489;28;20030;-92
2022/01/18 06:22:15;;;;;;;7.90;3.70;;;;;;;17.42;42.96;102592.00;4993270;28;20558;-92
2022/01/18 06:24:41;;;;;;;10.07;3.45;;;;;;;17.38;43.24;102601.13;4993613;28;20031;-92
2022/01/18 06:27:07;;;;;;;7.35;3.78;;;;;;;17.33;43.04;102598.72;4993318;28;20053;-91
2022/01/18 06:29:32;;;;;;;9.93;3.75;;;;;;;17.12;43.44;102589.44;4993327;28;20022;-93
2022/01/18 06:31:58;;;;;;;6.65;3.35;;;;;;;17.12;43.32;102608.88;4993135;28;20118;-91
2022/01/18 06:34:23;;;;;;;7.88;3.00;;;;;;;17.06;42.96;102611.88;4993401;28;20022;-94
2022/01/18 06:36:48;;;;;;;5.50;3.38;;;;;;;17.14;43.35;102598.16;4993397;28;20034;-91
2022/01/18 06:39:16;;;;;;;7.85;3.00;;;;;;;17.12;43.06;102597.38;4994372;28;20033;-90
2022/01/18 06:41:43;;;;;;;10.18;3.78;;;;;;;17.27;43.35;102600.91;4993353;28;20026;-93
2022/01/18 06:44:09;;;;;;;5.35;2.90;;;;;;;17.25;43.12;102598.34;4993285;28;20026;-89
2022/01/18 06:46:34;;;;;;;4.88;2.83;;;;;;;17.71;42.60;102600.78;4992908;28;20026;-89
2022/01/18 06:49:00;;;;;;;5.47;3.25;;;;;;;17.50;42.46;102599.50;4992862;28;20540;-84
2022/01/18 06:51:25;;;;;;;5.15;2.50;;;;;;;17.50;42.81;102596.84;4993042;28;20030;-88
2022/01/18 06:53:50;;;;;;;7.32;2.95;;;;;;;17.91;42.03;102590.72;4993040;28;20098;-92
2022/01/18 06:56:18;;;;;;;10.63;3.50;;;;;;;17.81;41.84;102604.59;4993121;28;20030;-93
2022/01/18 06:58:44;;;;;;;4.60;2.83;;;;;;;17.70;42.34;102600.91;4990665;28;20029;-82
2022/01/18 07:01:11;;;;;;;6.88;3.08;;;;;;;17.84;41.86;102604.41;4992092;28;20113;-82
2022/01/18 07:03:38;;;;;;;7.68;2.72;;;;;;;17.56;42.24;102601.78;4992449;28;20034;-83
2022/01/18 07:06:03;;;;;;;7.40;3.38;;;;;;;17.52;42.20;102589.63;4991010;28;20034;-85
2022/01/18 07:08:30;;;;;;;6.53;2.72;;;;;;;17.48;42.48;102591.63;4987565;28;20026;-84
2022/01/18 07:10:56;;;;;;;8.65;2.78;;;;;;;17.45;42.26;102594.47;4992160;28;20030;-84
2022/01/18 07:13:21;;;;;;;8.32;3.08;;;;;;;17.67;41.87;102596.63;4990235;28;20026;-84
2022/01/18 07:15:47;;;;;;;6.47;2.90;;;;;;;17.37;41.89;102600.25;4992257;28;20034;-84
2022/01/18 07:18:12;;;;;;;7.70;2.90;;;;;;;17.47;43.45;102602.34;4991576;28;20080;-90
2022/01/18 07:20:38;;;;;;;6.63;2.53;;;;;;;17.31;45.14;102608.59;4996884;28;20038;-83
2022/01/18 07:23:07;;;;;;;5.95;2.30;;;;;;;17.24;46.26;102612.59;4993165;28;20168;-86
2022/01/18 07:25:32;;;;;;;8.50;2.70;;;;;;;17.18;47.26;102620.91;4992345;28;20484;-90
2022/01/18 07:27:58;;;;;;;7.88;2.25;;;;;;;17.11;48.26;102617.78;4991068;28;20030;-84
2022/01/18 07:30:23;;;;;;;7.47;2.53;;;;;;;17.33;48.88;102624.44;4984729;28;20515;-91
2022/01/18 07:32:49;;;;;;;14.82;3.08;;;;;;;17.29;48.93;102620.25;4992145;28;20037;-91
2022/01/18 07:35:14;;;;;;;5.05;2.20;;;;;;;17.40;48.81;102621.31;4990740;28;20027;-89
2022/01/18 07:37:40;;;;;;;5.68;2.05;;;;;;;17.58;48.56;102626.44;4991382;28;20066;-93
2022/01/18 07:40:07;;;;;;;11.35;2.00;;;;;;;17.71;48.45;102632.66;4991954;28;20049;-92
2022/01/18 07:42:32;;;;;;;6.00;1.92;;;;;;;17.83;48.16;102629.28;4982170;28;20394;-89
2022/01/18 07:44:57;;;;;;;4.93;2.42;;;;;;;17.86;47.15;102632.72;4992231;28;20030;-88
2022/01/18 07:47:23;;;;;;;4.50;1.70;;;;;;;18.01;46.93;102634.38;4991957;28;20480;-87
2022/01/18 07:49:49;;;;;;;5.07;1.95;;;;;;;18.14;46.25;102635.28;4992456;28;20101;-89
2022/01/18 07:52:17;;;;;;;8.38;2.60;;;;;;;18.26;45.81;102643.44;4992719;28;20551;-85
2022/01/18 07:54:43;;;;;;;5.22;2.30;;;;;;;18.36;44.80;102641.88;4992432;28;20033;-94
2022/01/18 07:57:11;;;;;;;7.70;2.78;;;;;;;17.90;47.74;102643.03;4991974;28;20027;-93
2022/01/18 07:59:36;;;;;;;7.20;2.88;;;;;;;17.78;47.49;102655.25;4989549;28;20034;-94
2022/01/18 08:02:02;;;;;;;6.30;3.03;;;;;;;17.74;49.20;102659.06;4992517;28;20424;-94
2022/01/18 08:04:27;;;;;;;6.30;2.83;;;;;;;17.84;48.94;102656.72;4992626;28;20030;-95
2022/01/18 08:06:53;;;;;;;8.05;3.08;;;;;;;17.75;48.70;102657.25;4992405;28;20055;-93
2022/01/18 08:09:19;;;;;;;7.60;3.08;;;;;;;17.68;49.09;102656.78;4992088;28;20058;-91
2022/01/18 08:11:48;;;;;;;5.63;2.92;;;;;;;17.90;49.16;102656.31;4986900;28;20077;-87
2022/01/18 08:14:17;;;;;;;3.97;2.17;;;;;;;17.83;48.65;102655.88;4978194;28;20125;-91
2022/01/18 08:17:16;;;;;;;5.28;2.60;;;;;;;17.91;48.61;102649.19;4972514;28;20041;-86
2022/01/18 08:19:36;;;;;;;10.88;3.35;;;;;;;17.76;48.23;102654.50;4972442;28;20497;-89
2022/01/18 08:22:02;;;;;;;7.18;3.13;;;;;;;17.83;48.16;102647.88;4983383;28;20034;-88
2022/01/18 08:24:28;;;;;;;5.28;2.70;;;;;;;17.88;48.45;102647.59;4991625;28;20551;-89
2022/01/18 08:26:54;;;;;;;5.75;3.00;;;;;;;18.00;47.35;102660.09;4983958;28;20026;-83
2022/01/18 08:29:20;;;;;;;5.30;3.13;;;;;;;17.67;47.99;102649.75;4989570;28;20034;-86
2022/01/18 08:31:46;;;;;;;6.68;2.97;;;;;;;18.00;48.13;102648.63;4990307;28;20033;-87
2022/01/18 08:34:12;;;;;;;6.38;3.10;;;;;;;17.99;48.18;102652.22;4979105;28;20027;-88
2022/01/18 08:36:38;;;;;;;6.35;2.95;;;;;;;17.93;47.73;102652.59;4995519;28;20033;-93
2022/01/18 08:39:04;;;;;;;6.63;2.30;;;;;;;18.04;48.04;102644.81;4993471;28;20084;-90
2022/01/18 08:41:31;;;;;;;6.13;2.30;;;;;;;18.18;47.39;102647.41;4977686;28;20035;-87
2022/01/18 08:43:56;;;;;;;4.25;2.15;;;;;;;18.10;47.43;102648.88;4975642;28;20474;-86
2022/01/18 08:46:22;;;;;;;3.90;2.17;;;;;;;18.21;47.51;102644.56;4976902;28;20683;-86
2022/01/18 08:48:48;;;;;;;6.15;2.42;;;;;;;18.33;47.20;102642.94;4980741;28;20133;-87
2022/01/18 08:51:14;;;;;;;5.45;2.47;;;;;;;18.40;46.83;102638.03;4993206;28;20164;-87
2022/01/18 08:53:40;;;;;;;8.38;2.88;;;;;;;18.57;46.55;102637.78;4975353;28;20113;-87
2022/01/18 08:56:06;;;;;;;14.20;3.45;;;;;;;18.47;46.49;102641.19;4975759;28;20066;-86
2022/01/18 08:58:34;;;;;;;6.45;2.78;;;;;;;18.79;46.17;102644.34;4994902;28;20018;-87
2022/01/18 09:01:00;;;;;;;7.82;3.08;;;;;;;18.82;45.98;102630.88;4982194;28;20413;-86
2022/01/18 09:03:25;;;;;;;8.85;3.20;;;;;;;18.63;45.85;102637.38;4980941;28;20026;-86
2022/01/18 09:05:51;;;;;;;16.27;4.60;;;;;;;18.52;45.97;102636.38;4994792;28;20035;-86
2022/01/18 09:08:19;;;;;;;9.55;3.38;;;;;;;18.60;45.79;102629.63;4989143;28;20030;-86
2022/01/18 09:10:46;;;;;;;10.10;4.43;;;;;;;18.66;45.38;102641.66;4975316;28;20030;-86
2022/01/18 09:13:12;;;;;;;8.57;4.13;;;;;;;19.15;45.39;102640.16;4978406;28;20477;-86
2022/01/18 09:15:38;;;;;;;19.63;5.13;;;;;;;18.70;45.47;102637.84;4994182;28;20038;-85
2022/01/18 09:18:04;;;;;;;21.05;5.75;;;;;;;18.34;46.59;102654.41;4980686;28;20085;-84
2022/01/18 09:20:30;;;;;;;16.85;5.35;;;;;;;18.58;46.73;102655.47;4993836;28;20034;-84
2022/01/18 09:22:56;;;;;;;10.05;4.97;;;;;;;18.66;47.21;102651.44;4977538;28;20029;-88
2022/01/18 09:25:25;;;;;;;17.33;5.88;;;;;;;18.91;46.83;102646.19;4983539;28;20026;-86
2022/01/18 09:27:51;;;;;;;19.33;5.30;;;;;;;19.25;46.06;102649.19;4990899;28;20023;-86
2022/01/18 09:30:17;;;;;;;24.02;6.75;;;;;;;18.98;46.19;102647.50;4994252;28;20134;-86
2022/01/18 09:32:44;;;;;;;24.75;7.35;;;;;;;19.30;45.71;102657.75;4992482;28;20084;-86
2022/01/18 09:35:10;;;;;;;24.00;7.60;;;;;;;19.02;46.45;102656.13;4988717;28;20042;-87
2022/01/18 09:37:35;;;;;;;21.08;6.93;;;;;;;19.06;46.54;102654.13;4990198;28;20038;-86
2022/01/18 09:40:02;;;;;;;20.55;6.38;;;;;;;19.08;46.33;102654.88;4993729;28;20027;-86
2022/01/18 09:42:33;;;;;;;19.92;7.30;;;;;;;19.03;46.24;102656.00;4993565;28;20117;-87
2022/01/18 09:45:06;;;;;;;22.83;7.73;;;;;;;19.16;46.09;102660.50;4994106;28;20053;-86
2022/01/18 09:47:31;;;;;;;19.40;6.60;;;;;;;19.06;45.99;102667.44;4993009;28;20036;-86
2022/01/18 09:49:58;;;;;;;20.08;6.38;;;;;;;19.11;46.04;102665.28;4987991;28;20019;-87
2022/01/18 09:52:23;;;;;;;18.52;6.18;;;;;;;19.19;45.91;102662.94;4974668;28;20098;-86
2022/01/18 09:54:49;;;;;;;21.48;6.43;;;;;;;19.21;45.73;102669.03;4978232;28;20520;-85
2022/01/18 09:57:14;;;;;;;19.13;6.00;;;;;;;19.18;45.24;102671.91;4993747;28;20073;-86
2022/01/18 09:59:40;;;;;;;17.20;6.63;;;;;;;19.16;45.42;102668.50;4987622;28;20121;-87
2022/01/18 10:02:09;;;;;;;15.90;6.53;;;;;;;19.06;45.71;102675.41;4974199;28;20370;-86
2022/01/18 10:04:39;;;;;;;15.93;6.28;;;;;;;19.24;45.51;102679.47;4984738;28;20528;-85
2022/01/18 10:07:05;;;;;;;15.23;6.72;;;;;;;19.17;45.42;102679.06;4993880;28;20026;-85
2022/01/18 10:09:30;;;;;;;16.30;5.85;;;;;;;19.09;45.56;102677.84;4984057;28;20436;-87
2022/01/18 10:12:22;;;;;;;10.30;5.68;;;;;;;19.20;45.20;102684.16;4974231;28;20031;-85
2022/01/18 10:14:53;;;;;;;12.15;5.35;;;;;;;19.31;45.40;102679.91;5013966;28;20049;-86
2022/01/18 10:17:39;;;;;;;18.40;5.65;;;;;;;19.47;45.19;102685.88;4993728;28;20061;-85
2022/01/18 10:20:12;;;;;;;10.90;5.70;;;;;;;19.30;45.47;102679.06;4991521;28;20034;-85
2022/01/18 10:22:43;;;;;;;13.50;5.10;;;;;;;19.29;45.45;102682.66;4988613;28;20077;-87
2022/01/18 10:25:16;;;;;;;12.70;5.53;;;;;;;19.45;45.22;102671.81;4973911;28;20031;-85
2022/01/18 10:27:41;;;;;;;11.55;5.03;;;;;;;19.40;45.70;102682.78;4978196;28;20022;-87
2022/01/18 10:30:10;;;;;;;10.52;5.30;;;;;;;19.42;45.46;102682.69;4992295;28;20083;-86
2022/01/18 10:32:40;;;;;;;12.93;4.72;;;;;;;19.56;45.33;102679.88;4989740;28;20034;-87
2022/01/18 10:35:08;;;;;;;9.32;5.07;;;;;;;19.71;44.83;102670.00;4973785;28;20031;-86
2022/01/18 10:37:34;;;;;;;8.55;4.18;;;;;;;19.78;44.79;102673.91;4975393;28;20536;-86
2022/01/18 10:40:08;;;;;;;8.90;4.50;;;;;;;19.96;44.50;102673.56;4993061;28;20030;-85
2022/01/18 10:42:47;;;;;;;7.97;4.85;;;;;;;20.00;43.96;102677.72;4991349;28;20027;-84
2022/01/18 10:45:14;;;;;;;9.57;4.53;;;;;;;19.87;44.49;102676.91;4973571;28;20115;-85
2022/01/18 10:47:49;;;;;;;9.05;4.32;;;;;;;20.00;44.35;102675.06;4974937;28;20481;-85
2022/01/18 10:50:17;;;;;;;9.75;4.20;;;;;;;19.89;44.29;102664.34;4986636;28;20085;-85
2022/01/18 10:52:42;;;;;;;8.85;4.18;;;;;;;19.90;44.12;102661.53;4981626;28;20101;-86
2022/01/18 10:55:16;;;;;;;8.43;3.92;;;;;;;20.17;43.76;102664.03;4992789;28;20165;-85
2022/01/18 10:57:41;;;;;;;9.38;4.75;;;;;;;20.07;43.27;102657.66;4985489;28;20023;-84
2022/01/18 11:00:22;;;;;;;7.40;4.22;;;;;;;20.25;43.50;102654.63;4991278;28;20022;-84
2022/01/18 11:02:53;;;;;;;6.82;3.72;;;;;;;19.97;44.16;102653.97;4992504;28;20030;-85
2022/01/18 11:05:26;;;;;;;7.83;3.83;;;;;;;19.97;44.30;102656.63;4992595;28;20030;-88
2022/01/18 11:07:53;;;;;;;7.78;3.67;;;;;;;20.16;44.20;102651.66;4990361;28;20272;-86
2022/01/18 11:10:22;;;;;;;14.40;4.18;;;;;;;20.30;43.87;102647.09;4991012;28;20034;-86
2022/01/18 11:13:03;;;;;;;6.28;3.33;;;;;;;20.74;43.37;102641.16;4976881;28;20080;-87
2022/01/18 11:15:31;;;;;;;6.88;3.28;;;;;;;20.59;43.50;102643.16;4988566;28;20093;-86
2022/01/18 11:17:59;;;;;;;9.27;3.42;;;;;;;20.59;43.66;102632.47;4976983;28;20054;-86
2022/01/18 11:20:35;;;;;;;7.60;3.58;;;;;;;20.63;43.75;102632.25;4988339;28;20255;-86
2022/01/18 11:23:04;;;;;;;6.30;3.13;;;;;;;20.52;43.86;102639.22;4973061;28;20039;-86
2022/01/18 11:25:30;;;;;;;10.82;3.70;;;;;;;20.51;43.74;102632.16;4976339;28;20544;-87
2022/01/18 11:27:58;;;;;;;9.68;3.10;;;;;;;20.61;43.65;102635.03;4992444;28;20110;-86
2022/01/18 11:30:29;;;;;;;7.40;2.85;;;;;;;20.76;43.95;102633.03;4990286;28;20027;-86
2022/01/18 11:32:56;;;;;;;6.50;2.78;;;;;;;20.96;43.66;102620.81;4972972;28;20035;-86
2022/01/18 11:35:48;;;;;;;8.20;3.72;;;;;;;21.14;43.66;102621.22;4975393;28;20023;-89
2022/01/18 11:38:48;;;;;;;7.38;3.65;;;;;;;22.33;41.04;102612.59;4979169;28;20041;-87
2022/01/18 11:41:25;;;;;;;9.20;3.28;;;;;;;21.87;42.45;102617.19;4976113;28;20049;-88
2022/01/18 11:43:55;;;;;;;6.90;3.60;;;;;;;21.63;42.63;102608.50;4979652;28;20018;-87
2022/01/18 11:46:24;;;;;;;9.45;4.18;;;;;;;21.67;42.72;102600.09;4991813;28;20504;-87
2022/01/18 11:49:01;;;;;;;8.52;3.65;;;;;;;21.73;42.46;102601.44;4978131;28;20045;-90
2022/01/18 11:51:44;;;;;;;6.95;3.65;;;;;;;21.71;42.61;102598.03;4972704;28;20105;-89
2022/01/18 11:54:19;;;;;;;7.18;3.58;;;;;;;21.76;42.45;102596.69;4977650;28;20026;-89
2022/01/18 11:56:46;;;;;;;10.85;3.63;;;;;;;21.73;42.30;102602.28;4980400;28;20073;-89
2022/01/18 11:59:14;;;;;;;10.05;4.28;;;;;;;21.56;42.35;102584.06;4981635;28;20046;-92
2022/01/18 12:01:48;;;;;;;9.00;3.47;;;;;;;22.17;41.59;102584.41;4992120;28;20065;-92
2022/01/18 12:04:34;;;;;;;8.68;3.33;;;;;;;22.22;41.11;102580.53;4994292;28;20031;-90
2022/01/18 12:06:59;;;;;;;7.68;3.70;;;;;;;22.51;40.20;102564.69;4994008;28;20046;-90
2022/01/18 12:09:43;;;;;;;10.75;4.07;;;;;;;22.83;39.62;102564.63;4996240;28;20457;-91
2022/01/18 12:12:36;;;;;;;7.80;3.60;;;;;;;23.40;39.11;102556.16;4995640;28;20030;-93
2022/01/18 12:15:02;;;;;;;6.28;3.28;;;;;;;23.22;38.95;102550.59;4995934;28;20022;-93
2022/01/18 12:17:45;;;;;;;9.25;3.63;;;;;;;23.48;38.28;102556.31;4995769;28;20101;-92
2022/01/18 12:20:34;;;;;;;10.45;3.72;;;;;;;23.60;37.97;102560.59;4995377;28;20027;-90
2022/01/18 12:23:14;;;;;;;8.70;3.17;;;;;;;23.65;38.22;102555.66;4994602;28;20034;-90
2022/01/18 12:26:14;;;;;;;6.80;3.33;;;;;;;23.64;37.98;102548.63;4995518;28;20026;-91
2022/01/18 12:34:24;;;;;;;8.27;3.25;;;;;;;22.47;40.10;102521.31;4982139;28;20545;-89
2022/01/18 12:36:51;;;;;;;4.88;2.42;;;;;;;22.30;41.07;102519.22;4999910;28;20034;-89
2022/01/18 12:39:16;;;;;;;14.60;3.47;;;;;;;22.09;40.47;102517.31;4991103;28;20027;-87
2022/01/18 12:41:50;;;;;;;11.38;3.45;;;;;;;22.11;40.26;102518.03;4975527;28;20397;-90
2022/01/18 12:44:21;;;;;;;5.20;3.08;;;;;;;22.15;40.33;102507.91;4979478;28;20042;-89
2022/01/18 12:47:04;;;;;;;10.13;3.00;;;;;;;22.51;39.94;102503.13;4995134;28;20046;-89